Time;durP1;ratioP1;P1;durP2;ratioP2;P2;SDS_P1;SDS_P2;PMS_P1;PMS_P2;Temp;Humidity;BMP_temperature;BMP_pressure;BME280_temperature;BME280_humidity;BME280_pressure;Samples;Min_cycle;Max_cycle;Signal;HPM_P1;HPM_P2
2023/01/08 00:00:56;;;;;;;40.95;22.63;;;;;;;0.37;84.99;100110.72;5108721;28;20081;-71
2023/01/08 00:03:22;;;;;;;40.10;21.77;;;;;;;0.47;85.13;100119.16;5111274;28;20497;-71
2023/01/08 00:05:48;;;;;;;37.72;20.30;;;;;;;0.54;84.47;100100.53;5111365;28;20080;-70
2023/01/08 00:08:13;;;;;;;43.35;23.17;;;;;;;0.36;85.08;100107.16;5111838;28;20488;-71
2023/01/08 00:10:39;;;;;;;39.83;22.05;;;;;;;0.46;84.98;100109.22;5111021;28;20019;-71
2023/01/08 00:13:06;;;;;;;46.70;23.65;;;;;;;0.25;85.99;100108.88;5111679;28;20515;-70
2023/01/08 00:15:32;;;;;;;47.13;24.33;;;;;;;0.25;86.70;100110.81;5110469;28;20023;-71
2023/01/08 00:17:58;;;;;;;45.47;23.05;;;;;;;0.29;86.45;100111.97;5111722;28;20125;-71
2023/01/08 00:20:23;;;;;;;43.67;24.00;;;;;;;0.24;87.26;100111.88;5098698;28;20145;-71
2023/01/08 00:22:50;;;;;;;46.70;22.88;;;;;;;0.07;87.88;100115.47;5110237;28;20489;-70
2023/01/08 00:25:16;;;;;;;49.30;26.13;;;;;;;0.27;87.40;100114.16;5111127;28;20024;-70
2023/01/08 00:27:41;;;;;;;42.88;24.35;;;;;;;0.10;86.66;100103.97;5111412;28;20023;-70
2023/01/08 00:30:08;;;;;;;51.70;27.25;;;;;;;-0.01;85.53;100102.13;5110639;28;20023;-70
2023/01/08 00:32:33;;;;;;;53.08;26.45;;;;;;;0.10;85.65;100111.41;5109666;28;20066;-70
2023/01/08 00:35:00;;;;;;;51.13;24.55;;;;;;;0.21;85.37;100110.47;5111496;28;20032;-70
2023/01/08 00:37:26;;;;;;;50.15;26.48;;;;;;;0.18;84.62;100107.41;5110381;28;20078;-70
2023/01/08 00:39:52;;;;;;;51.88;25.30;;;;;;;0.11;84.22;100108.38;5111416;28;20391;-70
2023/01/08 00:42:17;;;;;;;51.90;26.13;;;;;;;0.07;84.49;100112.72;5108610;28;20038;-70
2023/01/08 00:44:43;;;;;;;49.80;27.45;;;;;;;-0.10;85.17;100106.38;5110220;28;20401;-70
2023/01/08 00:47:08;;;;;;;48.65;26.85;;;;;;;-0.02;85.26;100111.47;5111283;28;20030;-70
2023/01/08 00:49:33;;;;;;;52.58;29.92;;;;;;;0.08;84.67;100119.06;5110086;28;20463;-70
2023/01/08 00:51:59;;;;;;;58.30;27.65;;;;;;;0.00;85.70;100117.56;5110557;28;20122;-70
2023/01/08 00:54:24;;;;;;;57.08;26.70;;;;;;;-0.04;85.21;100110.88;5110112;28;20089;-70
2023/01/08 00:56:50;;;;;;;56.20;27.90;;;;;;;0.07;84.59;100109.97;5102132;28;20121;-70
2023/01/08 00:59:15;;;;;;;64.07;27.05;;;;;;;0.07;84.78;100109.97;5101354;28;20031;-70
2023/01/08 01:01:41;;;;;;;50.50;26.15;;;;;;;0.23;84.62;100113.81;5107653;28;20032;-70
2023/01/08 01:04:06;;;;;;;52.05;27.85;;;;;;;0.28;83.79;100116.63;5109616;28;20042;-71
2023/01/08 01:06:32;;;;;;;44.53;25.33;;;;;;;0.23;84.90;100107.47;5111286;28;20024;-70
2023/01/08 01:08:57;;;;;;;44.92;25.13;;;;;;;0.06;85.33;100102.81;5109860;28;20486;-70
2023/01/08 01:11:26;;;;;;;55.22;27.10;;;;;;;-0.10;86.15;100103.63;5109559;28;20482;-70
2023/01/08 01:13:53;;;;;;;54.50;27.60;;;;;;;-0.07;86.05;100101.19;5109962;28;20027;-70
2023/01/08 01:16:18;;;;;;;45.92;24.45;;;;;;;-0.11;86.21;100094.53;5104551;28;20030;-70
2023/01/08 01:18:44;;;;;;;57.00;25.35;;;;;;;-0.08;86.79;100094.03;5110130;28;20106;-70
2023/01/08 01:21:29;;;;;;;48.28;24.95;;;;;;;-0.25;86.88;100102.25;5108663;28;20042;-70
2023/01/08 01:24:01;;;;;;;46.15;25.70;;;;;;;-0.24;87.87;100103.09;5111096;28;20019;-70
2023/01/08 01:26:27;;;;;;;49.67;25.23;;;;;;;-0.25;87.72;100094.00;5111139;28;20502;-70
2023/01/08 01:28:55;;;;;;;42.95;23.00;;;;;;;-0.52;88.59;100100.13;5110118;28;20030;-70
2023/01/08 01:31:21;;;;;;;42.28;24.15;;;;;;;-0.53;88.66;100092.97;5109993;28;20027;-70
2023/01/08 01:33:46;;;;;;;40.53;22.63;;;;;;;-0.61;88.81;100090.59;5110552;28;20482;-70
2023/01/08 01:36:13;;;;;;;48.10;20.95;;;;;;;-0.54;89.60;100088.53;5109717;28;20036;-70
2023/01/08 01:38:42;;;;;;;43.70;24.58;;;;;;;-0.45;89.41;100086.22;5114316;28;20035;-71
2023/01/08 01:41:22;;;;;;;42.55;21.27;;;;;;;-0.39;88.78;100073.41;5113629;28;20030;-70
2023/01/08 01:43:47;;;;;;;42.90;24.13;;;;;;;-0.39;88.31;100073.41;5113794;28;20051;-70
2023/01/08 01:46:23;;;;;;;40.38;20.38;;;;;;;-0.61;88.30;100080.44;5113289;28;20457;-70
2023/01/08 01:48:52;;;;;;;38.50;20.65;;;;;;;-0.63;88.14;100081.78;5113096;28;20122;-70
2023/01/08 01:51:19;;;;;;;33.33;19.65;;;;;;;-0.69;88.70;100071.78;5113929;28;20523;-70
2023/01/08 01:53:45;;;;;;;35.80;20.25;;;;;;;-0.66;88.74;100068.53;5113067;28;20019;-70
2023/01/08 01:56:10;;;;;;;36.80;20.13;;;;;;;-0.60;89.32;100070.31;5112905;28;20090;-70
2023/01/08 01:58:36;;;;;;;37.75;20.63;;;;;;;-0.60;89.52;100057.38;5114103;28;20130;-70
2023/01/08 02:01:04;;;;;;;34.58;20.45;;;;;;;-0.49;89.34;100063.91;5113210;28;20074;-70
2023/01/08 02:03:33;;;;;;;31.00;18.50;;;;;;;-0.51;89.85;100068.81;5101564;28;20432;-70
2023/01/08 02:06:24;;;;;;;37.95;19.38;;;;;;;-0.49;89.57;100063.91;5092533;28;20024;-70
2023/01/08 02:09:16;;;;;;;33.67;20.00;;;;;;;-0.43;89.78;100060.16;5093805;28;20078;-70
2023/01/08 02:12:26;;;;;;;33.13;19.17;;;;;;;-0.40;89.32;100055.25;5103254;28;20027;-70
2023/01/08 02:15:21;;;;;;;38.70;18.90;;;;;;;-0.41;89.12;100061.84;5110688;27;20502;-70
2023/01/08 02:17:59;;;;;;;44.85;23.50;;;;;;;-0.57;88.78;100067.06;5113995;28;20107;-70
2023/01/08 02:20:44;;;;;;;44.08;21.30;;;;;;;-0.58;88.88;100070.91;5112482;28;20106;-70
2023/01/08 02:23:28;;;;;;;37.22;20.73;;;;;;;-0.72;88.96;100065.69;5112924;28;20023;-70
2023/01/08 02:26:17;;;;;;;33.20;17.50;;;;;;;-0.79;88.87;100070.50;5113885;28;20539;-70
2023/01/08 02:29:10;;;;;;;32.35;18.10;;;;;;;-0.86;89.69;100064.28;5112393;28;20494;-70
2023/01/08 02:31:40;;;;;;;39.88;19.45;;;;;;;-0.85;89.37;100063.22;5112783;28;20023;-70
2023/01/08 02:34:06;;;;;;;39.25;20.23;;;;;;;-0.75;89.30;100066.16;5095653;28;20020;-70
2023/01/08 02:36:41;;;;;;;37.97;19.77;;;;;;;-0.76;89.88;100060.94;5091871;28;20491;-70
2023/01/08 02:39:14;;;;;;;34.05;20.60;;;;;;;-0.69;90.05;100067.09;5112032;28;20486;-70
2023/01/08 02:42:01;;;;;;;39.33;21.23;;;;;;;-0.78;90.22;100061.16;5111652;28;20454;-70
2023/01/08 02:44:35;;;;;;;49.90;23.67;;;;;;;-0.88;89.65;100060.97;5112686;28;20024;-70
2023/01/08 02:47:04;;;;;;;38.13;20.33;;;;;;;-0.96;89.79;100064.13;5111719;28;20463;-70
2023/01/08 02:49:34;;;;;;;40.20;21.40;;;;;;;-0.88;89.03;100066.47;5110284;28;20047;-70
2023/01/08 02:52:02;;;;;;;37.50;21.00;;;;;;;-1.05;90.04;100052.66;5112395;28;20026;-70
2023/01/08 02:54:33;;;;;;;36.05;20.80;;;;;;;-0.96;90.65;100053.94;5113152;28;20494;-70
2023/01/08 02:56:59;;;;;;;;;;;;;;;-0.89;90.27;100057.41;5112327;28;20048;-70
2023/01/08 02:59:29;;;;;;;35.58;21.35;;;;;;;-0.82;90.67;100065.50;5112338;28;20377;-70
2023/01/08 03:01:55;;;;;;;36.78;19.10;;;;;;;-0.82;90.17;100057.25;5110851;28;20036;-70
2023/01/08 03:04:23;;;;;;;33.63;18.92;;;;;;;-0.83;90.11;100054.75;5093556;28;20407;-70
2023/01/08 03:06:49;;;;;;;43.38;20.75;;;;;;;-0.84;89.52;100051.19;5111975;28;20030;-70
2023/01/08 03:09:15;;;;;;;32.33;19.35;;;;;;;-0.79;89.59;100045.75;5112869;28;20019;-70
2023/01/08 03:11:56;;;;;;;38.15;17.58;;;;;;;-0.79;89.81;100042.16;5112196;28;20547;-70
2023/01/08 03:14:31;;;;;;;33.70;17.77;;;;;;;-0.66;89.59;100049.28;5112670;28;20020;-70
2023/01/08 03:17:00;;;;;;;28.73;15.68;;;;;;;-0.55;89.72;100047.56;5111495;28;20102;-70
2023/01/08 03:19:39;;;;;;;25.33;15.63;;;;;;;-0.50;88.98;100061.41;5111008;28;20116;-70
2023/01/08 03:22:12;;;;;;;30.27;16.88;;;;;;;-0.45;88.80;100058.75;5112759;28;20165;-70
2023/01/08 03:24:40;;;;;;;31.08;17.23;;;;;;;-0.57;88.78;100067.06;5113241;28;20031;-69
2023/01/08 03:27:13;;;;;;;30.67;17.48;;;;;;;-0.58;88.37;100055.22;5111262;28;20046;-70
2023/01/08 03:29:39;;;;;;;31.05;17.10;;;;;;;-0.71;88.55;100055.53;5110512;28;20031;-70
2023/01/08 03:32:10;;;;;;;28.15;17.23;;;;;;;-0.80;89.25;100057.84;5112407;28;20028;-70
2023/01/08 03:34:39;;;;;;;31.20;18.23;;;;;;;-0.75;89.17;100051.63;5111857;28;20494;-70
2023/01/08 03:37:07;;;;;;;47.10;23.33;;;;;;;-0.83;90.29;100054.75;5112478;28;20030;-70
2023/01/08 03:39:57;;;;;;;38.45;19.88;;;;;;;-0.79;90.54;100058.66;5111271;27;20016;-70
2023/01/08 03:42:24;;;;;;;57.30;25.77;;;;;;;-0.75;89.51;100059.84;5112430;28;20027;-70
2023/01/08 03:44:50;;;;;;;46.75;24.80;;;;;;;-0.71;90.09;100059.13;5111555;28;20478;-70
2023/01/08 03:47:20;;;;;;;39.95;19.63;;;;;;;-0.72;90.69;100046.47;5112226;28;20023;-70
2023/01/08 03:49:46;;;;;;;36.80;19.70;;;;;;;-0.71;90.52;100045.38;5111260;28;20370;-71
2023/01/08 03:52:26;;;;;;;40.05;20.73;;;;;;;-0.61;89.84;100052.13;5112227;28;20128;-70
2023/01/08 03:54:52;;;;;;;30.25;17.83;;;;;;;-0.50;89.62;100047.66;5110690;28;20035;-70
2023/01/08 03:57:17;;;;;;;39.50;19.83;;;;;;;-0.43;89.09;100040.94;5110679;28;20142;-70
2023/01/08 03:59:43;;;;;;;44.65;21.67;;;;;;;-0.53;89.22;100048.16;5109950;28;20088;-70
2023/01/08 04:02:08;;;;;;;37.17;20.35;;;;;;;-0.46;89.28;100046.94;5112056;28;20031;-70
2023/01/08 04:04:34;;;;;;;34.42;16.92;;;;;;;-0.40;88.77;100055.25;5109809;28;20042;-70
2023/01/08 04:07:00;;;;;;;26.30;15.77;;;;;;;-0.49;89.05;100066.63;5111104;28;20031;-70
2023/01/08 04:09:25;;;;;;;23.42;14.13;;;;;;;-0.46;89.42;100055.19;5109470;28;20028;-71
2023/01/08 04:11:51;;;;;;;29.17;14.88;;;;;;;-0.49;89.88;100063.91;5096592;28;20529;-70
2023/01/08 04:14:17;;;;;;;25.83;14.77;;;;;;;-0.58;89.86;100055.22;5110994;28;20076;-70
2023/01/08 04:16:43;;;;;;;30.42;15.27;;;;;;;-0.60;90.11;100067.56;5111779;28;20043;-70
2023/01/08 04:19:10;;;;;;;36.95;16.90;;;;;;;-0.74;89.28;100065.09;5110763;28;20062;-70
2023/01/08 04:21:35;;;;;;;28.65;16.17;;;;;;;-0.88;89.94;100067.31;5110279;28;20088;-70
2023/01/08 04:24:01;;;;;;;24.10;15.50;;;;;;;-0.93;90.26;100069.13;5110454;28;20020;-70
2023/01/08 04:26:27;;;;;;;26.88;15.23;;;;;;;-0.92;90.95;100073.53;5111640;28;20406;-70
2023/01/08 04:28:52;;;;;;;32.65;18.25;;;;;;;-0.78;90.18;100068.59;5111125;28;20038;-69
2023/01/08 04:31:18;;;;;;;31.42;17.02;;;;;;;-0.90;90.16;100068.63;5110657;28;20024;-70
2023/01/08 04:33:43;;;;;;;31.05;17.38;;;;;;;-0.90;90.30;100066.72;5110740;28;20059;-70
2023/01/08 04:36:08;;;;;;;33.95;18.33;;;;;;;-0.80;89.89;100068.81;5110266;28;20483;-70
2023/01/08 04:38:34;;;;;;;31.77;16.30;;;;;;;-0.72;89.20;100071.19;5110337;28;20019;-70
2023/01/08 04:41:00;;;;;;;29.38;16.55;;;;;;;-0.86;89.98;100084.38;5108657;28;20036;-70
2023/01/08 04:43:27;;;;;;;38.90;16.27;;;;;;;-0.99;90.48;100082.72;5109890;28;20063;-70
2023/01/08 04:45:57;;;;;;;30.73;16.30;;;;;;;-1.00;89.80;100091.22;5111465;28;20055;-70
2023/01/08 04:48:23;;;;;;;;;;;;;;;-1.05;90.18;100086.47;5112016;28;20023;-70
2023/01/08 04:50:50;;;;;;;38.65;19.85;;;;;;;-1.10;90.29;100091.00;5110649;28;19911;-70
2023/01/08 04:53:15;;;;;;;35.83;20.48;;;;;;;-1.23;90.38;100092.09;5111563;28;20024;-70
2023/01/08 04:55:41;;;;;;;34.22;19.83;;;;;;;-1.24;90.79;100090.44;5110332;28;20552;-70
2023/01/08 04:58:06;;;;;;;34.95;19.42;;;;;;;-1.16;90.71;100082.66;5110207;28;20387;-70
2023/01/08 05:00:32;;;;;;;35.25;18.42;;;;;;;-1.07;90.83;100090.50;5110402;28;20028;-71
2023/01/08 05:02:57;;;;;;;27.85;16.60;;;;;;;-1.01;90.72;100089.56;5108296;28;20074;-71
2023/01/08 05:05:23;;;;;;;27.17;16.60;;;;;;;-0.97;90.82;100095.38;5111258;28;20379;-70
2023/01/08 05:07:48;;;;;;;27.05;14.95;;;;;;;-0.72;90.09;100097.81;5110012;28;20434;-70
2023/01/08 05:10:14;;;;;;;34.17;16.27;;;;;;;-0.81;89.17;100091.88;5109722;28;20031;-70
2023/01/08 05:12:39;;;;;;;27.45;16.25;;;;;;;-0.90;89.70;100098.84;5113184;28;20028;-70
2023/01/08 05:15:05;;;;;;;24.45;16.02;;;;;;;-1.05;89.42;100094.69;5113899;28;20024;-70
2023/01/08 05:17:31;;;;;;;28.13;15.82;;;;;;;-1.06;89.00;100101.28;5115135;28;20039;-70
2023/01/08 05:19:56;;;;;;;30.70;16.98;;;;;;;-1.06;89.31;100103.16;5113530;28;20032;-70
2023/01/08 05:22:22;;;;;;;32.90;18.58;;;;;;;-1.14;89.27;100101.63;5113639;28;20031;-70
2023/01/08 05:24:47;;;;;;;26.88;15.48;;;;;;;-1.08;89.75;100105.31;5114394;28;20023;-70
2023/01/08 05:27:13;;;;;;;26.50;15.40;;;;;;;-1.24;90.56;100113.25;5113584;28;20031;-70
2023/01/08 05:29:38;;;;;;;32.35;19.45;;;;;;;-1.28;90.80;100107.38;5112896;28;20023;-70
2023/01/08 05:32:12;;;;;;;49.22;24.25;;;;;;;-1.14;90.31;100116.22;5113519;28;20024;-70
2023/01/08 05:34:38;;;;;;;61.60;28.05;;;;;;;-0.95;89.48;100112.47;5114253;28;20024;-70
2023/01/08 05:37:03;;;;;;;70.85;33.75;;;;;;;-0.90;88.01;100110.66;5110338;28;20516;-70
2023/01/08 05:39:28;;;;;;;89.25;48.47;;;;;;;-1.23;88.52;100112.16;5113843;28;20426;-70
2023/01/08 05:41:54;;;;;;;67.40;39.92;;;;;;;-1.14;89.11;100107.13;5113222;28;20035;-70
2023/01/08 05:44:19;;;;;;;64.05;35.15;;;;;;;-1.08;89.02;100117.16;5113935;28;20043;-70
2023/01/08 05:46:45;;;;;;;62.47;31.13;;;;;;;-0.79;87.98;100113.59;5114425;28;20027;-70
2023/01/08 05:49:10;;;;;;;54.20;30.23;;;;;;;-0.56;87.01;100112.69;5111449;28;20027;-70
2023/01/08 05:51:36;;;;;;;74.18;35.95;;;;;;;-0.54;85.62;100113.28;5114320;28;20027;-67
2023/01/08 05:54:01;;;;;;;83.90;40.20;;;;;;;-0.61;85.52;100109.84;5113148;28;20039;-70
2023/01/08 05:56:26;;;;;;;94.15;47.88;;;;;;;-0.93;87.77;100107.56;5113134;28;20059;-69
2023/01/08 05:58:55;;;;;;;112.28;56.05;;;;;;;-0.87;88.18;100101.09;5110429;28;20497;-71
2023/01/08 06:01:21;;;;;;;94.90;53.80;;;;;;;-0.65;88.21;100119.66;5113679;28;20110;-69
2023/01/08 06:03:47;;;;;;;67.97;37.17;;;;;;;-0.46;87.53;100112.91;5102680;27;20115;-70
2023/01/08 06:06:12;;;;;;;49.35;32.25;;;;;;;-0.29;87.13;100114.84;5106768;28;20032;-69
2023/01/08 06:08:38;;;;;;;59.67;32.00;;;;;;;-0.09;87.04;100111.63;5092138;28;20548;-69
2023/01/08 06:11:07;;;;;;;53.83;29.50;;;;;;;0.02;85.53;100123.66;5104776;28;20031;-69
2023/01/08 06:13:34;;;;;;;52.42;28.98;;;;;;;0.16;84.56;100115.88;5110720;27;20426;-69
2023/01/08 06:16:00;;;;;;;51.03;26.50;;;;;;;0.28;83.88;100110.31;5103445;28;20120;-69
2023/01/08 06:18:27;;;;;;;56.25;31.60;;;;;;;0.24;82.79;100115.47;5091659;28;20414;-69
2023/01/08 06:20:52;;;;;;;89.28;36.80;;;;;;;0.25;82.27;100116.31;5106776;28;20032;-71
2023/01/08 06:23:18;;;;;;;68.90;33.22;;;;;;;0.11;81.98;100115.81;5109006;28;20035;-69
2023/01/08 06:25:43;;;;;;;77.53;37.13;;;;;;;-0.10;83.57;100126.47;5105990;28;20031;-70
2023/01/08 06:28:09;;;;;;;56.65;29.25;;;;;;;-0.03;82.85;100121.66;5097158;28;20411;-70
2023/01/08 06:30:35;;;;;;;48.88;26.17;;;;;;;-0.15;82.89;100127.19;5100969;28;20081;-70
2023/01/08 06:33:01;;;;;;;43.78;27.88;;;;;;;-0.39;84.19;100129.25;5094240;28;20035;-70
2023/01/08 06:35:26;;;;;;;79.38;43.58;;;;;;;-0.43;84.95;100139.03;5101878;28;20031;-70
2023/01/08 06:37:55;;;;;;;80.85;45.60;;;;;;;-0.22;84.03;100128.44;5108657;28;20445;-69
2023/01/08 06:40:21;;;;;;;106.45;58.92;;;;;;;-0.30;84.04;100137.91;5110369;28;20031;-69
2023/01/08 06:42:46;;;;;;;144.57;81.13;;;;;;;-0.46;84.87;100145.88;5105570;28;20027;-67
2023/01/08 06:45:12;;;;;;;122.45;67.30;;;;;;;-0.40;85.11;100135.81;5102700;28;20031;-72
2023/01/08 06:47:37;;;;;;;129.15;67.38;;;;;;;-0.25;84.43;100143.50;5108219;28;20099;-70
2023/01/08 06:50:05;;;;;;;96.38;53.42;;;;;;;-0.59;85.64;100140.69;5109480;28;20024;-70
2023/01/08 06:52:31;;;;;;;119.43;57.72;;;;;;;-0.71;87.86;100152.53;5109301;28;20116;-68
2023/01/08 06:54:57;;;;;;;95.88;53.35;;;;;;;-0.25;86.56;100148.19;5109729;28;20035;-71
2023/01/08 06:57:22;;;;;;;119.15;58.30;;;;;;;0.17;85.37;100158.00;5108188;28;20048;-70
2023/01/08 06:59:48;;;;;;;113.18;54.67;;;;;;;0.48;83.83;100153.84;5109132;28;20023;-70
2023/01/08 07:02:15;;;;;;;71.43;35.95;;;;;;;0.54;82.14;100152.00;5105361;28;20040;-71
2023/01/08 07:04:40;;;;;;;84.10;44.05;;;;;;;0.37;83.72;100155.59;5099503;28;20027;-70
2023/01/08 07:07:06;;;;;;;77.97;37.95;;;;;;;0.20;84.48;100152.00;5107443;28;20038;-71
2023/01/08 07:09:34;;;;;;;68.95;33.08;;;;;;;0.08;85.68;100161.16;5107556;28;20054;-73
2023/01/08 07:12:00;;;;;;;71.70;30.75;;;;;;;0.18;85.88;100151.41;5105648;28;20031;-72
2023/01/08 07:14:25;;;;;;;65.15;30.08;;;;;;;0.18;87.93;100162.44;5108085;28;20031;-73
2023/01/08 07:16:51;;;;;;;64.32;32.58;;;;;;;0.28;87.91;100159.84;5099931;28;20031;-69
2023/01/08 07:19:16;;;;;;;55.80;30.70;;;;;;;0.19;88.81;100155.84;5103689;28;20031;-67
2023/01/08 07:21:42;;;;;;;54.78;27.63;;;;;;;0.47;88.18;100163.19;5101255;28;20035;-70
2023/01/08 07:24:07;;;;;;;50.28;25.65;;;;;;;0.63;88.01;100168.94;5108039;28;20024;-68
2023/01/08 07:26:33;;;;;;;47.03;27.90;;;;;;;0.89;87.52;100172.91;5096224;28;20093;-69
2023/01/08 07:28:59;;;;;;;45.42;25.45;;;;;;;0.70;87.93;100166.84;5101803;28;20027;-72
2023/01/08 07:31:24;;;;;;;53.80;29.88;;;;;;;0.80;88.04;100177.19;5104834;28;20035;-68
2023/01/08 07:33:50;;;;;;;57.85;31.98;;;;;;;0.93;88.14;100173.25;5099952;28;20043;-73
2023/01/08 07:36:21;;;;;;;39.58;22.75;;;;;;;1.31;86.88;100165.19;5100185;28;20118;-65
2023/01/08 07:38:47;;;;;;;37.45;21.15;;;;;;;1.42;85.37;100169.75;5100134;28;20027;-68
2023/01/08 07:41:13;;;;;;;33.72;19.20;;;;;;;1.40;85.76;100174.69;5104994;28;20421;-64
2023/01/08 07:43:38;;;;;;;35.28;19.63;;;;;;;1.74;84.53;100174.53;5104952;28;20024;-66
2023/01/08 07:46:04;;;;;;;45.08;21.38;;;;;;;1.95;84.23;100183.03;5107984;28;20493;-73
2023/01/08 07:48:29;;;;;;;37.38;21.05;;;;;;;2.17;83.35;100179.38;5105546;28;20513;-70
2023/01/08 07:51:03;;;;;;;49.63;24.30;;;;;;;2.03;83.56;100174.28;5112092;28;20028;-70
2023/01/08 07:53:28;;;;;;;45.55;22.00;;;;;;;1.75;84.73;100184.47;5110754;28;20034;-70
2023/01/08 07:56:00;;;;;;;39.75;21.60;;;;;;;1.80;85.44;100173.47;5111118;28;20051;-70
2023/01/08 07:58:26;;;;;;;36.83;20.83;;;;;;;1.72;85.82;100182.25;5110607;28;20110;-70
2023/01/08 08:00:52;;;;;;;36.38;18.88;;;;;;;1.92;85.39;100183.53;5111918;28;20536;-70
2023/01/08 08:03:17;;;;;;;36.50;19.60;;;;;;;2.20;84.88;100187.97;5111947;28;20148;-70
2023/01/08 08:05:42;;;;;;;35.33;16.50;;;;;;;2.05;84.33;100176.78;5110627;28;20418;-70
2023/01/08 08:08:10;;;;;;;30.25;16.50;;;;;;;2.18;84.44;100176.34;5110503;28;20027;-71
2023/01/08 08:10:37;;;;;;;31.75;18.02;;;;;;;2.36;83.68;100182.59;5110528;28;20027;-71
2023/01/08 08:13:03;;;;;;;28.15;15.55;;;;;;;2.38;81.85;100178.47;5111721;28;20030;-70
2023/01/08 08:15:28;;;;;;;36.25;16.65;;;;;;;2.46;82.22;100179.09;5110851;28;20063;-70
2023/01/08 08:17:54;;;;;;;26.30;16.45;;;;;;;2.49;81.10;100178.56;5110957;28;20028;-70
2023/01/08 08:20:19;;;;;;;24.38;15.70;;;;;;;2.45;80.97;100183.78;5111672;28;20088;-70
2023/01/08 08:22:44;;;;;;;23.80;13.65;;;;;;;2.64;80.43;100181.44;5111794;28;20058;-70
2023/01/08 08:25:13;;;;;;;27.85;16.40;;;;;;;2.84;80.66;100181.88;5110483;28;20035;-70
2023/01/08 08:27:40;;;;;;;30.80;16.88;;;;;;;3.14;79.42;100177.63;5110955;28;20110;-70
2023/01/08 08:30:06;;;;;;;24.63;14.38;;;;;;;3.50;77.44;100181.41;5111618;28;20520;-70
2023/01/08 08:32:31;;;;;;;19.52;13.07;;;;;;;3.96;76.05;100173.50;5111599;28;20024;-70
2023/01/08 08:34:57;;;;;;;23.30;14.07;;;;;;;3.89;74.77;100171.00;5110603;28;20035;-71
2023/01/08 08:37:22;;;;;;;24.20;14.30;;;;;;;3.83;75.07;100169.31;5111540;28;20023;-70
2023/01/08 08:39:48;;;;;;;24.95;15.30;;;;;;;3.91;75.81;100169.63;5109980;28;20080;-70
2023/01/08 08:42:13;;;;;;;22.85;14.48;;;;;;;4.00;74.78;100169.09;5111530;28;20020;-70
2023/01/08 08:44:38;;;;;;;21.17;13.43;;;;;;;4.30;74.12;100160.00;5109206;28;20016;-71
2023/01/08 08:47:07;;;;;;;22.42;14.98;;;;;;;4.10;74.41;100165.50;5112380;28;20024;-70
2023/01/08 08:49:33;;;;;;;23.20;15.00;;;;;;;4.27;75.33;100168.00;5114210;28;20047;-70
2023/01/08 08:51:58;;;;;;;24.60;14.07;;;;;;;4.79;74.47;100171.59;5114570;28;20078;-71
2023/01/08 08:54:24;;;;;;;26.38;14.75;;;;;;;4.85;73.44;100164.97;5114480;28;20574;-71
2023/01/08 08:56:49;;;;;;;24.17;13.77;;;;;;;5.00;73.02;100166.84;5115429;28;20043;-71
2023/01/08 08:59:15;;;;;;;26.88;14.35;;;;;;;5.08;73.92;100170.19;5114120;28;20028;-71
2023/01/08 09:01:40;;;;;;;30.90;13.52;;;;;;;5.29;71.69;100168.16;5114007;28;20027;-70
2023/01/08 09:04:06;;;;;;;23.58;14.35;;;;;;;5.69;70.70;100165.50;5114831;27;20080;-73
2023/01/08 09:06:31;;;;;;;21.70;12.60;;;;;;;5.80;69.83;100164.34;5114740;28;20022;-71
2023/01/08 09:08:56;;;;;;;18.40;12.75;;;;;;;5.68;70.61;100170.25;5093404;28;20024;-71
2023/01/08 09:11:22;;;;;;;19.92;12.02;;;;;;;5.99;68.53;100158.16;5094842;28;20019;-71
2023/01/08 09:13:47;;;;;;;27.45;14.70;;;;;;;5.89;68.84;100159.84;5094806;28;20023;-71
2023/01/08 09:16:13;;;;;;;26.48;14.40;;;;;;;6.09;68.76;100160.03;5110255;28;20024;-71
2023/01/08 09:18:38;;;;;;;26.02;14.40;;;;;;;6.30;68.87;100160.72;5115119;28;20020;-71
2023/01/08 09:21:06;;;;;;;22.95;14.00;;;;;;;6.06;68.01;100152.31;5113581;28;20024;-72
2023/01/08 09:23:32;;;;;;;28.20;15.00;;;;;;;6.29;68.60;100151.56;5114967;27;20027;-71
2023/01/08 09:26:02;;;;;;;20.08;13.30;;;;;;;6.71;66.54;100146.50;5114003;28;20084;-71
2023/01/08 09:28:28;;;;;;;26.50;15.52;;;;;;;6.34;66.85;100152.66;5113058;28;20031;-71
2023/01/08 09:30:53;;;;;;;19.83;14.15;;;;;;;6.72;66.25;100138.97;5114696;28;20042;-71
2023/01/08 09:33:19;;;;;;;27.40;17.33;;;;;;;6.52;66.26;100131.66;5114825;28;20019;-71
2023/01/08 09:35:44;;;;;;;58.83;33.60;;;;;;;6.80;65.17;100126.38;5113862;28;20494;-72
2023/01/08 09:38:10;;;;;;;39.00;25.50;;;;;;;6.64;64.52;100128.50;5114670;28;20468;-72
2023/01/08 09:40:41;;;;;;;44.95;26.15;;;;;;;6.64;64.97;100115.41;5114468;28;20027;-72
2023/01/08 09:43:13;;;;;;;26.58;14.38;;;;;;;6.74;63.12;100108.91;5109781;28;20216;-76
2023/01/08 09:45:39;;;;;;;54.40;31.63;;;;;;;6.91;64.37;100104.88;5105221;28;20039;-73
2023/01/08 09:48:11;;;;;;;30.17;17.20;;;;;;;6.94;63.07;100110.69;5111315;28;20043;-74
2023/01/08 09:50:37;;;;;;;59.67;32.67;;;;;;;7.36;62.99;100096.25;5112940;28;20020;-73
2023/01/08 09:53:03;;;;;;;34.35;19.33;;;;;;;6.96;62.67;100090.91;5115635;28;20088;-76
2023/01/08 09:55:31;;;;;;;36.50;19.38;;;;;;;7.39;62.48;100098.44;5104085;28;20521;-74
2023/01/08 09:57:58;;;;;;;33.47;19.55;;;;;;;7.75;61.48;100084.03;5107185;28;20106;-74
2023/01/08 10:00:28;;;;;;;31.75;18.83;;;;;;;7.53;60.80;100085.44;5106453;28;20024;-72
2023/01/08 10:02:55;;;;;;;25.77;15.10;;;;;;;7.43;60.76;100078.06;5108610;28;20782;-75
2023/01/08 10:05:20;;;;;;;23.88;14.52;;;;;;;7.77;60.19;100078.16;5107088;28;20122;-73
2023/01/08 10:07:46;;;;;;;21.17;12.48;;;;;;;7.69;59.19;100074.13;5102064;28;20118;-72
2023/01/08 10:10:27;;;;;;;28.38;16.35;;;;;;;8.13;58.83;100078.44;5110170;28;20069;-72
2023/01/08 10:12:53;;;;;;;27.27;16.02;;;;;;;8.17;57.61;100063.91;5109551;28;20031;-71
2023/01/08 10:15:21;;;;;;;49.70;24.83;;;;;;;8.28;57.05;100060.63;5108770;28;20042;-73
2023/01/08 10:18:05;;;;;;;18.23;10.88;;;;;;;7.41;58.48;100069.19;5108096;28;20532;-75
2023/01/08 10:20:31;;;;;;;18.75;10.18;;;;;;;7.69;58.68;100063.78;5108222;28;20028;-76
2023/01/08 10:23:08;;;;;;;20.60;11.88;;;;;;;7.89;58.67;100050.69;5099157;28;20518;-75
2023/01/08 10:25:51;;;;;;;25.63;12.55;;;;;;;8.21;57.86;100049.06;5090908;28;20035;-76
2023/01/08 10:28:28;;;;;;;21.33;11.95;;;;;;;8.65;55.98;100044.13;5103022;28;20028;-76
2023/01/08 10:31:02;;;;;;;22.95;13.65;;;;;;;8.64;55.76;100036.88;5100708;28;20020;-76
2023/01/08 10:33:39;;;;;;;12.75;8.48;;;;;;;8.56;55.43;100030.03;5099960;28;20099;-76
2023/01/08 10:36:12;;;;;;;25.88;12.13;;;;;;;8.81;55.05;100019.56;5102742;28;20379;-76
2023/01/08 10:38:49;;;;;;;19.77;10.88;;;;;;;8.80;55.62;100022.63;5094729;28;20023;-76
2023/01/08 10:41:16;;;;;;;15.30;9.48;;;;;;;8.73;55.49;100009.09;5090955;28;20128;-76
2023/01/08 10:43:52;;;;;;;18.80;9.35;;;;;;;9.02;54.85;100007.13;5088875;28;20060;-76
2023/01/08 10:46:24;;;;;;;15.23;8.68;;;;;;;9.07;54.13;100016.22;5103424;28;20055;-76
2023/01/08 10:48:56;;;;;;;14.23;8.68;;;;;;;9.31;53.88;100000.38;5101381;28;20555;-76
2023/01/08 10:51:29;;;;;;;20.27;10.15;;;;;;;9.62;53.14;100005.25;5107017;28;20027;-76
2023/01/08 10:53:59;;;;;;;18.92;10.38;;;;;;;9.37;52.61;100002.72;5091204;28;20133;-76
2023/01/08 10:56:27;;;;;;;18.40;10.07;;;;;;;8.95;54.45;100001.97;5092994;28;20039;-76
2023/01/08 10:58:53;;;;;;;36.30;15.23;;;;;;;9.25;53.46;99983.75;5098171;28;20040;-76
2023/01/08 11:01:21;;;;;;;22.67;12.35;;;;;;;9.59;52.68;99998.31;5098962;28;20085;-76
2023/01/08 11:03:53;;;;;;;31.63;18.52;;;;;;;9.89;52.53;99987.53;5089824;28;20059;-76
2023/01/08 11:06:43;;;;;;;18.85;10.05;;;;;;;9.25;54.12;99991.28;5105290;28;20034;-76
2023/01/08 11:09:14;;;;;;;42.63;21.92;;;;;;;9.35;53.84;99985.47;5096698;28;20020;-76
2023/01/08 11:11:40;;;;;;;62.53;31.33;;;;;;;9.57;54.19;99985.81;5094173;28;20062;-76
2023/01/08 11:14:20;;;;;;;16.00;9.82;;;;;;;9.15;53.69;99986.75;5097975;28;20051;-76
2023/01/08 11:16:45;;;;;;;13.63;9.48;;;;;;;9.46;53.43;99980.47;5124937;27;20482;-76
2023/01/08 11:19:18;;;;;;;13.60;9.98;;;;;;;9.67;53.32;99982.78;5109726;28;20035;-74